MAPA DE AEROPUERTO

INFORMACIÓN METAR y TAF

METAR FOR LEIB
ADDS - METARS form results

(0917 UTC 05 December 2020)
Data provider http://aviationweather.gov/metar/data/
 
METAR text: LEIB 050900Z 31003KT 260V030 9999 -RA FEW020TCU SCT038 BKN048 08/05 Q0999 RESHRA BECMG NSW
Conditions at: LEIB (IBIZA/ES CODOLA , ES) observed 0900 UTC 05 December 2020
Temperature: 8.0°C (46°F)
Dewpoint: 5.0°C (41°F) [RH = 81%]
Pressure (altimeter): 29.50 inches Hg (999.0 mb)
Winds: from the NW (310 degrees) at 3 MPH (3 knots; 1.5 m/s)
Visibility: 6 or more miles (10+ km)
Ceiling: 4800 feet AGL
Clouds: few clouds at 2000 feet AGL
scattered clouds at 3800 feet AGL
broken clouds at 4800 feet AGL
Weather: -RA  (light rain)

METAR text: LEIB 050850Z 26003KT 210V350 9999 -RA FEW020TCU SCT035 BKN048 08/05 Q0999 RESHRA BECMG NSW
Conditions at: LEIB (IBIZA/ES CODOLA , ES) observed 0850 UTC 05 December 2020
Temperature: 8.0°C (46°F)
Dewpoint: 5.0°C (41°F) [RH = 81%]
Pressure (altimeter): 29.50 inches Hg (999.0 mb)
Winds: from the W (260 degrees) at 3 MPH (3 knots; 1.5 m/s)
Visibility: 6 or more miles (10+ km)
Ceiling: 4800 feet AGL
Clouds: few clouds at 2000 feet AGL
scattered clouds at 3500 feet AGL
broken clouds at 4800 feet AGL
Weather: -RA  (light rain)

METAR text: LEIB 050830Z 34003KT 300V020 9999 SHRA FEW020TCU SCT035 BKN048 08/04 Q0999 BECMG NSW
Conditions at: LEIB (IBIZA/ES CODOLA , ES) observed 0830 UTC 05 December 2020
Temperature: 8.0°C (46°F)
Dewpoint: 4.0°C (39°F) [RH = 76%]
Pressure (altimeter): 29.50 inches Hg (999.0 mb)
Winds: from the NNW (340 degrees) at 3 MPH (3 knots; 1.5 m/s)
Visibility: 6 or more miles (10+ km)
Ceiling: 4800 feet AGL
Clouds: few clouds at 2000 feet AGL
scattered clouds at 3500 feet AGL
broken clouds at 4800 feet AGL
Weather: SHRA  (rain showers)

Forecast for: LEIB (IBIZA/ES CODOLA , ES)
Text: TAF LEIB 050800Z 0509/0609 30010KT 9999 FEW020 TX13/0512Z TN08/0606Z
Forecast period: 0900 UTC 05 December 2020 to 0900 UTC 06 December 2020
Forecast type: FROM: standard forecast or significant change
Winds: from the WNW (300 degrees) at 12 MPH (10 knots; 5.1 m/s)
Visibility: 6 or more miles (10+ km)
Ceiling: at least 12,000 feet AGL
Clouds: few clouds at 2000 feet AGL
Weather: no significant weather forecast for this period
Text: TEMPO 0509/0516 VRB03KT
Forecast period: 0900 to 1600 UTC 05 December 2020
Forecast type: TEMPORARY: The following changes expected for less than half the time period
Winds: variable direction winds at 3 MPH (3 knots; 1.5 m/s)
Visibility: missing
Ceiling: unknown
Clouds: missing
Weather: no significant weather forecast for this period